createdAt,value
2018-12-17T00:02:23.949Z,-2.20
2018-12-17T00:04:56.906Z,-2.20
2018-12-17T00:07:29.551Z,-2.20
2018-12-17T00:10:00.570Z,-2.20
2018-12-17T00:12:31.610Z,-2.20
2018-12-17T00:15:03.310Z,-2.20
2018-12-17T00:17:34.110Z,-2.30
2018-12-17T00:20:05.950Z,-2.30
2018-12-17T00:22:37.070Z,-2.20
2018-12-17T00:25:08.453Z,-2.20
2018-12-17T00:27:39.644Z,-2.20
2018-12-17T00:30:10.750Z,-2.20
2018-12-17T00:32:41.732Z,-2.30
2018-12-17T00:35:12.710Z,-2.30
2018-12-17T00:37:44.146Z,-2.40
2018-12-17T00:40:15.309Z,-2.40
2018-12-17T00:42:46.170Z,-2.40
2018-12-17T00:45:17.254Z,-2.40
2018-12-17T00:47:48.571Z,-2.50
2018-12-17T00:50:19.491Z,-2.40
2018-12-17T00:52:50.511Z,-2.50
2018-12-17T00:55:21.181Z,-2.50
2018-12-17T00:57:52.011Z,-2.50
2018-12-17T01:00:23.190Z,-2.50
2018-12-17T01:02:54.131Z,-2.60
2018-12-17T01:05:25.809Z,-2.70
2018-12-17T01:07:56.770Z,-2.70
2018-12-17T01:10:27.791Z,-2.70
2018-12-17T01:12:59.771Z,-2.80
2018-12-17T01:15:30.953Z,-2.80
2018-12-17T01:18:01.872Z,-2.90
2018-12-17T01:20:32.851Z,-2.90
2018-12-17T01:23:04.271Z,-3.00
2018-12-17T01:25:34.626Z,-3.00
2018-12-17T01:28:05.851Z,-3.00
2018-12-17T01:30:36.630Z,-3.00
2018-12-17T01:33:08.112Z,-3.10
2018-12-17T01:35:39.489Z,-3.10
2018-12-17T01:38:10.010Z,-3.10
2018-12-17T01:40:41.212Z,-3.10
2018-12-17T01:43:11.913Z,-3.10
2018-12-17T01:45:45.066Z,-3.10
2018-12-17T01:48:15.950Z,-3.10
2018-12-17T01:50:46.771Z,-3.10
2018-12-17T01:53:17.892Z,-3.10
2018-12-17T01:55:48.750Z,-3.10
2018-12-17T01:58:19.770Z,-3.10
2018-12-17T02:00:50.585Z,-3.00
2018-12-17T02:03:21.330Z,-3.00
2018-12-17T02:05:52.250Z,-3.00
2018-12-17T02:08:23.290Z,-3.00
2018-12-17T02:10:54.139Z,-3.00
2018-12-17T02:13:25.043Z,-3.00
2018-12-17T02:15:55.850Z,-3.00
2018-12-17T02:18:26.571Z,-3.00
2018-12-17T02:20:57.530Z,-3.00
2018-12-17T02:23:28.280Z,-3.00
2018-12-17T02:25:58.797Z,-3.10
2018-12-17T02:28:36.125Z,-3.00
2018-12-17T02:31:03.932Z,-3.10
2018-12-17T02:33:34.793Z,-3.00
2018-12-17T02:36:06.351Z,-3.10
2018-12-17T02:38:37.231Z,-3.10
2018-12-17T02:41:08.435Z,-3.10
2018-12-17T02:43:39.666Z,-3.10
2018-12-17T02:46:10.812Z,-3.10
2018-12-17T02:48:41.708Z,-3.10
2018-12-17T02:51:13.065Z,-3.10
2018-12-17T02:53:43.639Z,-3.10
2018-12-17T02:56:14.612Z,-3.00
2018-12-17T02:58:45.474Z,-3.00
2018-12-17T03:04:22.675Z,-2.90
2018-12-17T03:06:54.695Z,-2.90
2018-12-17T03:09:26.018Z,-2.90
2018-12-17T03:11:57.032Z,-2.90
2018-12-17T03:14:28.095Z,-2.80
2018-12-17T03:16:58.995Z,-2.80
2018-12-17T03:19:31.275Z,-2.80
2018-12-17T03:22:02.364Z,-2.70
2018-12-17T03:24:34.816Z,-2.70
2018-12-17T03:27:05.856Z,-2.70
2018-12-17T03:29:36.776Z,-2.70
2018-12-17T03:32:08.265Z,-2.70
2018-12-17T03:34:39.634Z,-2.70
2018-12-17T03:37:10.321Z,-2.70
2018-12-17T03:39:41.132Z,-2.70
2018-12-17T03:42:12.434Z,-2.70
2018-12-17T03:44:43.775Z,-2.70
2018-12-17T03:47:14.818Z,-2.70
2018-12-17T03:49:46.035Z,-2.70
2018-12-17T03:52:17.586Z,-2.70
2018-12-17T03:54:48.358Z,-2.70
2018-12-17T03:57:19.296Z,-2.70
2018-12-17T03:59:50.656Z,-2.80
2018-12-17T04:02:22.037Z,-2.70
2018-12-17T04:04:54.415Z,-2.80
2018-12-17T04:07:25.256Z,-2.80
2018-12-17T04:09:56.477Z,-2.70
2018-12-17T04:12:27.091Z,-2.70
2018-12-17T04:14:59.235Z,-2.80
2018-12-17T04:17:30.436Z,-2.80
2018-12-17T04:20:01.895Z,-2.80
2018-12-17T04:22:33.217Z,-2.80
2018-12-17T04:25:04.535Z,-2.80
2018-12-17T04:27:35.068Z,-2.80
2018-12-17T04:30:05.993Z,-2.70
2018-12-17T04:32:36.903Z,-2.70
2018-12-17T04:35:08.091Z,-2.70
2018-12-17T04:37:39.816Z,-2.70
2018-12-17T04:40:10.984Z,-2.70
2018-12-17T04:42:41.954Z,-2.70
2018-12-17T04:45:13.615Z,-2.70
2018-12-17T04:47:44.995Z,-2.70
2018-12-17T04:50:15.935Z,-2.70
2018-12-17T04:52:47.242Z,-2.70
2018-12-17T04:55:18.596Z,-2.70
2018-12-17T04:57:50.657Z,-2.60
2018-12-17T05:00:21.385Z,-2.70
2018-12-17T05:02:52.237Z,-2.70
2018-12-17T05:05:23.256Z,-2.60
2018-12-17T05:07:54.683Z,-2.70
2018-12-17T05:10:25.537Z,-2.70
2018-12-17T05:12:56.955Z,-2.70
2018-12-17T05:15:27.975Z,-2.70
2018-12-17T05:17:59.635Z,-2.70
2018-12-17T05:20:30.794Z,-2.70
2018-12-17T05:23:02.015Z,-2.70
2018-12-17T05:25:33.198Z,-2.70
2018-12-17T05:28:05.736Z,-2.70
2018-12-17T05:30:37.056Z,-2.80
2018-12-17T05:33:09.354Z,-2.70
2018-12-17T05:35:40.555Z,-2.70
2018-12-17T05:38:12.250Z,-2.70
2018-12-17T05:40:43.495Z,-2.70
2018-12-17T05:43:15.175Z,-2.70
2018-12-17T05:45:47.475Z,-2.70
2018-12-17T05:48:19.176Z,-2.70
2018-12-17T05:50:50.495Z,-2.70
2018-12-17T05:53:21.403Z,-2.70
2018-12-17T05:55:52.874Z,-2.70
2018-12-17T05:58:23.582Z,-2.70
2018-12-17T06:00:54.657Z,-2.70
2018-12-17T06:03:25.594Z,-2.70
2018-12-17T06:05:57.714Z,-2.60
2018-12-17T06:08:28.776Z,-2.60
2018-12-17T06:10:59.884Z,-2.60
2018-12-17T06:13:31.134Z,-2.60
2018-12-17T06:16:02.535Z,-2.60
2018-12-17T06:18:34.195Z,-2.60
2018-12-17T06:21:05.874Z,-2.60
2018-12-17T06:23:37.217Z,-2.60
2018-12-17T06:26:08.255Z,-2.60
2018-12-17T06:28:39.655Z,-2.70
2018-12-17T06:31:10.981Z,-2.60
2018-12-17T06:33:42.355Z,-2.60
2018-12-17T06:36:13.396Z,-2.60
2018-12-17T06:38:44.854Z,-2.60
2018-12-17T06:41:16.416Z,-2.70
2018-12-17T06:43:47.416Z,-2.60
2018-12-17T06:46:18.835Z,-2.70
2018-12-17T06:48:49.955Z,-2.70
2018-12-17T06:51:22.756Z,-2.70
2018-12-17T06:53:54.394Z,-2.70
2018-12-17T06:56:25.812Z,-2.70
2018-12-17T06:58:56.895Z,-2.60
2018-12-17T07:01:28.247Z,-2.70
2018-12-17T07:03:59.775Z,-2.70
2018-12-17T07:06:31.035Z,-2.60
2018-12-17T07:09:02.395Z,-2.60
2018-12-17T07:11:34.334Z,-2.60
2018-12-17T07:14:05.715Z,-2.60
2018-12-17T07:16:37.038Z,-2.60
2018-12-17T07:19:08.134Z,-2.50
2018-12-17T07:21:39.155Z,-2.50
2018-12-17T07:24:10.494Z,-2.50
2018-12-17T07:26:41.296Z,-2.50
2018-12-17T07:29:12.934Z,-2.50
2018-12-17T07:31:44.075Z,-2.50
2018-12-17T07:34:15.695Z,-2.50
2018-12-17T07:36:47.075Z,-2.50
2018-12-17T07:39:19.096Z,-2.40
2018-12-17T07:41:50.344Z,-2.40
2018-12-17T07:44:22.035Z,-2.30
2018-12-17T07:46:53.055Z,-2.30
2018-12-17T07:49:24.194Z,-2.20
2018-12-17T07:51:55.135Z,-2.20
2018-12-17T07:54:26.518Z,-2.20
2018-12-17T07:56:57.716Z,-2.10
2018-12-17T07:59:29.896Z,-2.10
2018-12-17T08:02:00.749Z,-2.00
2018-12-17T08:04:32.257Z,-2.00
2018-12-17T08:07:03.657Z,-1.90
2018-12-17T08:09:34.655Z,-1.90
2018-12-17T08:12:05.695Z,-1.90
2018-12-17T08:14:36.677Z,-1.80
2018-12-17T08:17:08.455Z,-1.80
2018-12-17T08:19:39.461Z,-1.70
2018-12-17T08:22:10.315Z,-1.70
2018-12-17T08:24:41.675Z,-1.60
2018-12-17T08:27:13.554Z,-1.60
2018-12-17T08:29:44.796Z,-1.50
2018-12-17T08:32:15.975Z,-1.40
2018-12-17T08:34:47.017Z,-1.30
2018-12-17T08:37:17.876Z,-1.30
2018-12-17T08:39:49.283Z,-1.20
2018-12-17T08:42:20.175Z,-1.20
2018-12-17T08:44:51.514Z,-1.10
2018-12-17T08:47:23.096Z,-1.10
2018-12-17T08:49:54.235Z,-1.00
2018-12-17T08:52:25.402Z,-0.90
2018-12-17T08:54:56.975Z,-0.80
2018-12-17T08:57:37.786Z,-0.80
2018-12-17T09:00:11.036Z,-0.70
2018-12-17T09:02:43.377Z,-0.70
2018-12-17T09:05:14.554Z,-0.60
2018-12-17T09:07:45.537Z,-0.50
2018-12-17T09:10:16.716Z,-0.40
2018-12-17T09:12:47.896Z,-0.30
2018-12-17T09:15:18.978Z,-0.20
2018-12-17T09:17:50.036Z,-0.10
2018-12-17T09:20:22.189Z,-0.10
2018-12-17T09:22:53.057Z,0.00
2018-12-17T09:25:24.115Z,0.00
2018-12-17T09:27:54.915Z,0.00
2018-12-17T09:30:25.894Z,0.10
2018-12-17T09:32:57.216Z,0.10
2018-12-17T09:35:28.596Z,0.00
2018-12-17T09:38:00.309Z,0.00
2018-12-17T09:40:30.849Z,0.10
2018-12-17T09:43:02.195Z,0.10
2018-12-17T09:45:33.404Z,0.20
2018-12-17T09:48:04.336Z,0.30
2018-12-17T09:50:38.356Z,0.40
2018-12-17T09:53:08.844Z,0.30
2018-12-17T09:55:40.356Z,0.30
2018-12-17T09:58:11.676Z,0.10
2018-12-17T10:00:43.155Z,0.10
2018-12-17T10:03:13.874Z,0.10
2018-12-17T10:05:44.717Z,0.10
2018-12-17T10:08:15.314Z,0.10
2018-12-17T10:10:46.259Z,0.00
2018-12-17T10:13:17.354Z,0.00
2018-12-17T10:15:49.095Z,0.00
2018-12-17T10:18:19.875Z,0.00
2018-12-17T10:20:51.175Z,0.00
2018-12-17T10:23:22.292Z,-0.10
2018-12-17T10:25:53.728Z,-0.10
2018-12-17T10:28:24.257Z,-0.20
2018-12-17T10:30:55.255Z,-0.10
2018-12-17T10:33:26.778Z,-0.10
2018-12-17T10:35:57.704Z,-0.10
2018-12-17T10:38:29.055Z,0.00
2018-12-17T10:40:59.594Z,0.00
2018-12-17T10:43:30.369Z,0.00
2018-12-17T10:46:01.555Z,0.00
2018-12-17T10:48:32.594Z,0.00
2018-12-17T10:51:03.635Z,0.10
2018-12-17T10:53:34.995Z,0.10
2018-12-17T10:56:06.176Z,0.10
2018-12-17T10:58:37.054Z,0.10
2018-12-17T11:01:13.488Z,0.20
2018-12-17T11:03:48.957Z,0.30
2018-12-17T11:06:22.638Z,0.40
2018-12-17T11:08:54.014Z,0.50
2018-12-17T11:11:25.095Z,0.60
2018-12-17T11:13:56.153Z,0.70
2018-12-17T11:16:27.534Z,0.70
2018-12-17T11:18:58.617Z,0.70
2018-12-17T11:21:29.935Z,0.70
2018-12-17T11:24:01.556Z,0.80
2018-12-17T11:26:33.215Z,0.90
2018-12-17T11:29:04.606Z,1.00
2018-12-17T11:31:35.522Z,1.10
2018-12-17T11:34:06.674Z,1.20
2018-12-17T11:36:38.674Z,1.20
2018-12-17T11:39:11.275Z,1.30
2018-12-17T11:41:44.596Z,1.50
2018-12-17T11:44:15.935Z,1.60
2018-12-17T11:46:46.915Z,1.70
2018-12-17T11:49:18.034Z,1.70
2018-12-17T11:51:49.079Z,1.80
2018-12-17T11:54:21.153Z,1.90
2018-12-17T11:59:04.895Z,1.90
2018-12-17T12:01:39.095Z,1.90
2018-12-17T12:04:10.030Z,2.00
2018-12-17T12:06:42.195Z,1.90
2018-12-17T12:09:18.637Z,2.00
2018-12-17T12:11:51.874Z,2.10
2018-12-17T12:14:23.135Z,2.20
2018-12-17T12:16:54.532Z,2.30
2018-12-17T12:19:25.858Z,2.40
2018-12-17T12:21:56.874Z,2.40
2018-12-17T12:24:27.644Z,2.40
2018-12-17T12:26:59.178Z,2.40
2018-12-17T12:29:30.175Z,2.40
2018-12-17T12:32:01.557Z,2.40
2018-12-17T12:34:32.728Z,2.40
2018-12-17T12:37:04.282Z,2.40
2018-12-17T12:39:35.675Z,2.50
2018-12-17T12:42:06.975Z,2.40
2018-12-17T12:44:38.257Z,2.40
2018-12-17T12:47:12.855Z,2.30
2018-12-17T12:49:43.924Z,2.30
2018-12-17T12:52:14.674Z,2.30
2018-12-17T12:54:45.799Z,2.30
2018-12-17T12:57:16.755Z,2.30
2018-12-17T12:59:47.775Z,2.30
2018-12-17T13:02:19.102Z,2.20
2018-12-17T13:04:50.648Z,2.20
2018-12-17T13:07:21.643Z,2.20
2018-12-17T13:09:52.288Z,2.10
2018-12-17T13:12:23.594Z,2.10
2018-12-17T13:14:54.974Z,2.10
2018-12-17T13:17:29.574Z,2.00
2018-12-17T13:20:00.415Z,2.10
2018-12-17T13:22:31.654Z,2.10
2018-12-17T13:25:02.695Z,2.20
2018-12-17T13:27:33.656Z,2.10
2018-12-17T13:30:05.695Z,2.20
2018-12-17T13:32:36.914Z,2.20
2018-12-17T13:35:09.235Z,2.20
2018-12-17T13:37:41.076Z,2.30
2018-12-17T13:40:12.825Z,2.30
2018-12-17T13:42:43.794Z,2.30
2018-12-17T13:45:14.719Z,2.30
2018-12-17T13:47:45.914Z,2.30
2018-12-17T13:50:22.035Z,2.30
2018-12-17T13:52:55.595Z,2.30
2018-12-17T13:55:26.478Z,2.20
2018-12-17T13:57:57.375Z,2.20
2018-12-17T14:00:29.055Z,2.10
2018-12-17T14:03:00.555Z,2.00
2018-12-17T14:05:31.675Z,1.90
2018-12-17T14:08:02.825Z,1.80
2018-12-17T14:10:39.136Z,1.70
2018-12-17T14:13:09.896Z,1.60
2018-12-17T14:15:52.576Z,1.50
2018-12-17T14:18:28.443Z,1.50
2018-12-17T14:21:04.615Z,1.30
2018-12-17T14:23:36.260Z,1.20
2018-12-17T14:26:07.156Z,1.10
2018-12-17T14:28:38.356Z,1.00
2018-12-17T14:31:09.437Z,0.90
2018-12-17T14:33:40.436Z,0.90
2018-12-17T14:36:11.555Z,0.80
2018-12-17T14:38:43.457Z,0.70
2018-12-17T14:41:14.307Z,0.70
2018-12-17T14:43:45.575Z,0.60
2018-12-17T14:46:16.261Z,0.50
2018-12-17T14:48:46.996Z,0.50
2018-12-17T14:51:18.455Z,0.40
2018-12-17T14:53:49.156Z,0.30
2018-12-17T14:56:20.317Z,0.30
2018-12-17T14:58:51.596Z,0.20
2018-12-17T15:01:23.436Z,0.20
2018-12-17T15:03:54.257Z,0.10
2018-12-17T15:06:25.239Z,0.10
2018-12-17T15:08:55.843Z,0.10
2018-12-17T15:11:27.017Z,0.00
2018-12-17T15:13:58.476Z,0.00
2018-12-17T15:16:29.439Z,0.00
2018-12-17T15:19:00.058Z,0.00
2018-12-17T15:21:30.934Z,-0.10
2018-12-17T15:24:01.729Z,-0.10
2018-12-17T15:26:32.697Z,-0.10
2018-12-17T15:29:03.984Z,-0.10
2018-12-17T15:31:35.359Z,-0.10
2018-12-17T15:34:06.556Z,-0.10
2018-12-17T15:36:37.377Z,-0.10
2018-12-17T15:39:09.601Z,-0.10
2018-12-17T15:41:41.057Z,-0.10
2018-12-17T15:44:12.265Z,-0.10
2018-12-17T15:46:43.461Z,0.00
2018-12-17T15:49:14.050Z,0.00
2018-12-17T15:51:45.076Z,0.00
2018-12-17T15:54:16.256Z,0.00
2018-12-17T15:56:46.899Z,0.00
2018-12-17T15:59:18.077Z,0.00
2018-12-17T16:01:50.174Z,0.00
2018-12-17T16:04:21.625Z,0.00
2018-12-17T16:06:52.755Z,0.00
2018-12-17T16:09:23.895Z,0.00
2018-12-17T16:11:54.895Z,0.00
2018-12-17T16:14:25.859Z,0.00
2018-12-17T16:16:57.855Z,0.00
2018-12-17T16:19:29.875Z,0.00
2018-12-17T16:22:01.242Z,0.00
2018-12-17T16:24:32.595Z,0.00
2018-12-17T16:27:03.335Z,-0.10
2018-12-17T16:29:34.338Z,-0.10
2018-12-17T16:32:05.197Z,-0.10
2018-12-17T16:34:36.215Z,-0.10
2018-12-17T16:37:07.274Z,-0.10
2018-12-17T16:39:38.771Z,-0.10
2018-12-17T16:42:09.855Z,-0.20
2018-12-17T16:44:41.210Z,-0.20
2018-12-17T16:47:12.015Z,-0.20
2018-12-17T16:49:42.840Z,-0.20
2018-12-17T16:52:13.978Z,-0.20
2018-12-17T16:54:44.724Z,-0.20
2018-12-17T16:57:15.475Z,-0.10
2018-12-17T16:59:45.877Z,-0.10
2018-12-17T17:02:16.704Z,-0.10
2018-12-17T17:04:48.037Z,-0.10
2018-12-17T17:07:19.896Z,0.00
2018-12-17T17:09:50.837Z,0.00
2018-12-17T17:12:21.961Z,0.00
2018-12-17T17:14:54.036Z,0.00
2018-12-17T17:17:25.381Z,0.10
2018-12-17T17:19:56.375Z,0.10
2018-12-17T17:22:28.256Z,0.10
2018-12-17T17:24:59.354Z,0.10
2018-12-17T17:27:30.366Z,0.10
2018-12-17T17:30:01.233Z,0.10
2018-12-17T17:32:31.977Z,0.10
2018-12-17T17:35:03.576Z,0.10
2018-12-17T17:37:34.635Z,0.10
2018-12-17T17:40:06.617Z,0.10
2018-12-17T17:42:38.036Z,0.10
2018-12-17T17:45:08.795Z,0.10
2018-12-17T17:47:41.017Z,0.10
2018-12-17T17:50:12.436Z,0.10
2018-12-17T17:52:43.495Z,0.00
2018-12-17T17:55:15.855Z,0.00
2018-12-17T17:57:46.935Z,0.00
2018-12-17T18:00:17.776Z,0.00
2018-12-17T18:02:48.855Z,0.00
2018-12-17T18:05:20.255Z,-0.10
2018-12-17T18:07:50.917Z,-0.10
2018-12-17T18:10:22.076Z,-0.20
2018-12-17T18:12:57.134Z,-0.20
2018-12-17T18:15:28.117Z,-0.20
2018-12-17T18:17:59.361Z,-0.30
2018-12-17T18:20:32.036Z,-0.30
2018-12-17T18:23:03.295Z,-0.30
2018-12-17T18:25:39.028Z,-0.30
2018-12-17T18:28:09.936Z,-0.30
2018-12-17T18:30:41.256Z,-0.30
2018-12-17T18:33:12.436Z,-0.20
2018-12-17T18:35:43.296Z,-0.20
2018-12-17T18:38:14.655Z,-0.30
2018-12-17T18:40:45.676Z,-0.30
2018-12-17T18:43:17.097Z,-0.40
2018-12-17T18:45:48.317Z,-0.50
2018-12-17T18:48:21.339Z,-0.60
2018-12-17T18:50:52.235Z,-0.70
2018-12-17T18:53:24.576Z,-0.80
2018-12-17T18:55:56.144Z,-0.80
2018-12-17T18:58:27.176Z,-0.90
2018-12-17T19:01:17.426Z,-0.90
2018-12-17T19:04:00.599Z,-0.80
2018-12-17T19:06:31.577Z,-0.80
2018-12-17T19:09:02.956Z,-0.70
2018-12-17T19:11:34.055Z,-0.70
2018-12-17T19:14:05.455Z,-0.60
2018-12-17T19:16:36.245Z,-0.60
2018-12-17T19:19:08.117Z,-0.50
2018-12-17T19:21:39.456Z,-0.50
2018-12-17T19:24:11.798Z,-0.40
2018-12-17T19:26:56.724Z,-0.40
2018-12-17T19:29:27.956Z,-0.40
2018-12-17T19:31:58.797Z,-0.30
2018-12-17T19:34:30.019Z,-0.30
2018-12-17T19:37:01.703Z,-0.30
2018-12-17T19:39:34.355Z,-0.30
2018-12-17T19:42:05.698Z,-0.30
2018-12-17T19:44:36.678Z,-0.30
2018-12-17T19:47:07.796Z,-0.30
2018-12-17T19:49:41.055Z,-0.40
2018-12-17T19:52:12.233Z,-0.40
2018-12-17T19:54:43.577Z,-0.50
2018-12-17T19:57:14.414Z,-0.50
2018-12-17T19:59:46.516Z,-0.60
2018-12-17T20:02:17.856Z,-0.70
2018-12-17T20:04:49.895Z,-0.70
2018-12-17T20:07:21.085Z,-0.80
2018-12-17T20:09:52.367Z,-0.80
2018-12-17T20:12:23.947Z,-0.90
2018-12-17T20:14:55.316Z,-1.10
2018-12-17T20:17:26.257Z,-1.20
2018-12-17T20:19:57.278Z,-1.30
2018-12-17T20:22:28.101Z,-1.30
2018-12-17T20:24:59.496Z,-1.40
2018-12-17T20:27:30.257Z,-1.40
2018-12-17T20:30:03.497Z,-1.50
2018-12-17T20:32:35.469Z,-1.50
2018-12-17T20:35:07.260Z,-1.50
2018-12-17T20:37:39.317Z,-1.50
2018-12-17T20:40:11.117Z,-1.60
2018-12-17T20:42:42.557Z,-1.60
2018-12-17T20:45:14.939Z,-1.60
2018-12-17T20:47:46.496Z,-1.60
2018-12-17T20:50:19.282Z,-1.70
2018-12-17T20:52:51.339Z,-1.80
2018-12-17T20:55:22.663Z,-1.90
2018-12-17T20:57:53.896Z,-2.00
2018-12-17T21:00:25.237Z,-2.20
2018-12-17T21:03:00.222Z,-2.30
2018-12-17T21:05:29.635Z,-2.50
2018-12-17T21:08:00.717Z,-2.60
2018-12-17T21:10:31.873Z,-2.60
2018-12-17T21:13:02.617Z,-2.70
2018-12-17T21:15:34.132Z,-2.80
2018-12-17T21:18:05.397Z,-2.90
2018-12-17T21:20:37.096Z,-3.00
2018-12-17T21:23:08.436Z,-3.10
2018-12-17T21:25:39.758Z,-3.20
2018-12-17T21:28:11.676Z,-3.30
2018-12-17T21:30:42.596Z,-3.30
2018-12-17T21:33:14.176Z,-3.30
2018-12-17T21:35:45.616Z,-3.40
2018-12-17T21:38:16.916Z,-3.30
2018-12-17T21:40:48.635Z,-3.30
2018-12-17T21:43:19.356Z,-3.30
2018-12-17T21:45:49.663Z,-3.20
2018-12-17T21:48:20.575Z,-3.20
2018-12-17T21:50:51.458Z,-3.20
2018-12-17T21:53:23.037Z,-3.20
2018-12-17T21:55:53.877Z,-3.20
2018-12-17T21:58:24.556Z,-3.20
2018-12-17T22:00:55.410Z,-3.10
2018-12-17T22:03:26.291Z,-3.10
2018-12-17T22:05:58.610Z,-3.00
2018-12-17T22:08:30.013Z,-3.00
2018-12-17T22:11:00.794Z,-2.90
2018-12-17T22:13:32.415Z,-2.90
2018-12-17T22:16:03.456Z,-2.80
2018-12-17T22:18:34.317Z,-2.80
2018-12-17T22:21:04.913Z,-2.70
2018-12-17T22:23:36.357Z,-2.60
2018-12-17T22:26:07.637Z,-2.50
2018-12-17T22:28:38.592Z,-2.50
2018-12-17T22:31:09.435Z,-2.40
2018-12-17T22:33:40.514Z,-2.40
2018-12-17T22:36:11.535Z,-2.30
2018-12-17T22:38:43.135Z,-2.20
2018-12-17T22:41:14.394Z,-2.20
2018-12-17T22:43:44.848Z,-2.10
2018-12-17T22:46:15.775Z,-2.10
2018-12-17T22:48:47.254Z,-2.00
2018-12-17T22:51:18.014Z,-2.00
2018-12-17T22:53:49.454Z,-1.90
2018-12-17T22:56:21.133Z,-1.80
2018-12-17T22:58:51.713Z,-1.80
2018-12-17T23:01:23.156Z,-1.70
2018-12-17T23:03:54.213Z,-1.70
2018-12-17T23:06:24.750Z,-1.60
2018-12-17T23:09:04.253Z,-1.60
2018-12-17T23:11:53.522Z,-1.60
2018-12-17T23:14:35.495Z,-1.60
2018-12-17T23:17:17.571Z,-1.60
2018-12-17T23:19:48.952Z,-1.60
2018-12-17T23:22:22.015Z,-1.50
2018-12-17T23:24:58.913Z,-1.50
2018-12-17T23:27:29.977Z,-1.50
2018-12-17T23:30:00.946Z,-1.40
2018-12-17T23:32:36.713Z,-1.40
2018-12-17T23:35:08.672Z,-1.30
2018-12-17T23:37:40.052Z,-1.30
2018-12-17T23:40:11.134Z,-1.30
2018-12-17T23:42:42.313Z,-1.20
2018-12-17T23:45:16.775Z,-1.30
2018-12-17T23:47:48.533Z,-1.30
2018-12-17T23:50:19.913Z,-1.30
2018-12-17T23:52:50.954Z,-1.30
2018-12-17T23:55:21.774Z,-1.30
2018-12-17T23:57:52.372Z,-1.30
